Time,TemperatureF,DewpointF,PressureIn,WindDirection,WindDirectionDegrees,WindSpeedMPH,WindSpeedGustMPH,Humidity,HourlyPrecipIn,Conditions,Clouds,dailyrainin,SoftwareType,DateUTC
2013-09-16 00:17:00,55.0,50.0,30.00,WSW,247,0.0,0.0,84,0.00,,,0.00,TxWx,2013-09-16 04:17:00,
2013-09-16 00:22:00,55.0,50.0,30.00,WSW,247,0.0,0.0,84,0.00,,,0.00,TxWx,2013-09-16 04:22:00,
2013-09-16 00:27:00,55.0,50.0,30.00,WSW,247,0.0,0.0,84,0.00,,,0.00,TxWx,2013-09-16 04:27:00,
2013-09-16 00:32:00,55.0,50.0,29.99,WSW,247,0.0,0.0,84,0.00,,,0.00,TxWx,2013-09-16 04:32:00,
2013-09-16 00:37:00,56.0,51.0,29.99,WSW,247,0.0,0.0,84,0.00,,,0.00,TxWx,2013-09-16 04:37:00,
2013-09-16 00:42:00,55.0,50.0,29.99,WSW,247,0.0,0.0,83,0.00,,,0.00,TxWx,2013-09-16 04:42:00,
2013-09-16 00:47:00,55.0,50.0,29.99,WSW,247,0.0,0.0,83,0.00,,,0.00,TxWx,2013-09-16 04:47:00,
2013-09-16 00:53:00,55.0,50.0,29.98,WSW,247,0.0,0.0,83,0.00,,,0.00,TxWx,2013-09-16 04:53:00,
2013-09-16 00:58:00,56.0,51.0,29.98,WSW,247,0.0,0.0,82,0.00,,,0.00,TxWx,2013-09-16 04:58:00,
2013-09-16 01:03:00,56.0,50.0,29.99,WSW,247,0.0,0.0,81,0.00,,,0.00,TxWx,2013-09-16 05:03:00,
2013-09-16 01:08:00,56.0,50.0,29.99,WSW,247,0.0,0.0,80,0.00,,,0.00,TxWx,2013-09-16 05:08:00,
2013-09-16 01:13:00,56.0,50.0,29.99,WSW,247,0.0,0.0,79,0.00,,,0.00,TxWx,2013-09-16 05:13:00,
2013-09-16 01:18:00,56.0,49.0,29.99,WSW,247,0.0,0.0,79,0.00,,,0.00,TxWx,2013-09-16 05:18:00,
2013-09-16 01:23:00,56.0,49.0,29.99,WSW,247,0.0,0.0,79,0.00,,,0.00,TxWx,2013-09-16 05:23:00,
2013-09-16 01:28:00,56.0,49.0,30.00,WSW,247,0.0,0.0,78,0.00,,,0.00,TxWx,2013-09-16 05:28:00,
2013-09-16 01:33:00,56.0,49.0,29.99,WSW,247,0.0,0.0,78,0.00,,,0.00,TxWx,2013-09-16 05:33:00,
2013-09-16 01:38:00,56.0,49.0,29.99,WSW,247,0.0,0.0,78,0.00,,,0.00,TxWx,2013-09-16 05:38:00,
2013-09-16 01:43:00,56.0,49.0,29.99,WSW,247,0.0,0.0,77,0.00,,,0.00,TxWx,2013-09-16 05:43:00,
2013-09-16 01:48:00,56.0,49.0,29.99,WSW,247,0.0,0.0,77,0.00,,,0.00,TxWx,2013-09-16 05:48:00,
2013-09-16 01:54:00,56.0,49.0,29.99,WSW,247,0.0,0.0,78,0.00,,,0.00,TxWx,2013-09-16 05:54:00,
2013-09-16 01:59:00,56.0,49.0,29.99,WSW,247,0.0,0.0,78,0.00,,,0.00,TxWx,2013-09-16 05:59:00,
2013-09-16 02:04:00,56.0,49.0,29.98,WSW,247,0.0,0.0,79,0.00,,,0.00,TxWx,2013-09-16 06:04:00,
2013-09-16 02:09:00,56.0,49.0,29.98,WSW,247,0.0,0.0,79,0.00,,,0.00,TxWx,2013-09-16 06:09:00,
2013-09-16 02:13:00,57.0,54.0,30.03,WSW,247,0.0,0.0,90,0.00,,,0.01,TxWx,2013-09-16 06:13:00,
2013-09-16 02:14:00,55.0,49.0,29.99,WSW,247,0.0,0.0,79,0.00,,,0.00,TxWx,2013-09-16 06:14:00,
2013-09-16 02:15:00,57.0,54.0,30.03,West,270,0.0,0.0,90,0.00,,,0.01,TxWx,2013-09-16 06:15:00,
2013-09-16 02:17:00,57.0,54.0,30.03,West,270,0.0,0.0,89,0.00,,,0.01,TxWx,2013-09-16 06:17:00,
2013-09-16 02:18:00,57.0,53.0,30.02,WSW,247,0.0,0.0,88,0.00,,,0.01,TxWx,2013-09-16 06:18:00,
2013-09-16 02:19:00,55.0,49.0,29.99,WSW,247,0.0,0.0,80,0.00,,,0.00,TxWx,2013-09-16 06:19:00,
2013-09-16 02:22:00,57.0,53.0,30.02,West,270,0.0,0.0,88,0.00,,,0.01,TxWx,2013-09-16 06:22:00,
2013-09-16 02:23:00,57.0,53.0,30.02,West,270,0.0,0.0,88,0.00,,,0.01,TxWx,2013-09-16 06:23:00,
2013-09-16 02:24:00,55.0,49.0,29.99,WSW,247,0.0,0.0,81,0.00,,,0.00,TxWx,2013-09-16 06:24:00,
2013-09-16 02:26:00,58.0,54.0,30.03,WSW,247,0.0,0.0,88,0.00,,,0.01,TxWx,2013-09-16 06:26:00,
2013-09-16 02:29:00,55.0,50.0,29.99,WSW,247,0.0,0.0,83,0.00,,,0.00,TxWx,2013-09-16 06:29:00,
2013-09-16 02:30:00,58.0,54.0,30.03,West,270,0.0,0.0,86,0.00,,,0.01,TxWx,2013-09-16 06:30:00,
2013-09-16 02:31:00,58.0,54.0,30.03,West,270,0.0,0.0,86,0.00,,,0.01,TxWx,2013-09-16 06:31:00,
2013-09-16 02:32:00,58.0,54.0,30.03,West,270,0.0,0.0,86,0.00,,,0.01,TxWx,2013-09-16 06:32:00,
2013-09-16 02:33:00,58.0,54.0,30.03,West,270,0.0,0.0,87,0.00,,,0.01,TxWx,2013-09-16 06:33:00,
2013-09-16 02:34:00,55.0,50.0,29.99,WSW,247,0.0,0.0,84,0.00,,,0.00,TxWx,2013-09-16 06:34:00,
2013-09-16 02:39:00,55.0,50.0,29.99,WSW,247,0.0,0.0,84,0.00,,,0.00,TxWx,2013-09-16 06:39:00,
2013-09-16 02:45:00,54.0,49.0,29.99,WSW,247,0.0,0.0,85,0.00,,,0.00,TxWx,2013-09-16 06:45:00,
2013-09-16 02:50:00,54.0,50.0,29.99,WSW,247,0.0,0.0,86,0.00,,,0.00,TxWx,2013-09-16 06:50:00,
2013-09-16 02:55:00,54.0,50.0,29.98,WSW,247,0.0,0.0,87,0.00,,,0.00,TxWx,2013-09-16 06:55:00,
2013-09-16 03:00:00,54.0,50.0,29.98,WSW,247,0.0,0.0,87,0.00,,,0.00,TxWx,2013-09-16 07:00:00,
2013-09-16 03:05:00,54.0,50.0,29.98,WSW,247,0.0,0.0,88,0.00,,,0.00,TxWx,2013-09-16 07:05:00,
2013-09-16 03:10:00,54.0,50.0,29.98,WSW,247,0.0,0.0,88,0.00,,,0.00,TxWx,2013-09-16 07:10:00,
2013-09-16 03:15:00,55.0,51.0,29.97,WSW,247,0.0,0.0,87,0.00,,,0.00,TxWx,2013-09-16 07:15:00,
2013-09-16 03:20:00,55.0,51.0,29.97,WSW,247,0.0,0.0,86,0.00,,,0.00,TxWx,2013-09-16 07:20:00,
2013-09-16 03:25:00,56.0,51.0,29.98,WSW,247,0.0,0.0,84,0.00,,,0.00,TxWx,2013-09-16 07:25:00,
2013-09-16 03:30:00,55.0,50.0,29.98,WSW,247,0.0,0.0,83,0.00,,,0.00,TxWx,2013-09-16 07:30:00,
2013-09-16 03:35:00,55.0,50.0,29.99,WSW,247,0.0,0.0,84,0.00,,,0.00,TxWx,2013-09-16 07:35:00,
2013-09-16 03:40:00,55.0,50.0,29.98,WSW,247,0.0,0.0,84,0.00,,,0.00,TxWx,2013-09-16 07:40:00,
2013-09-16 03:45:00,56.0,51.0,29.99,WSW,247,0.0,0.0,83,0.00,,,0.00,TxWx,2013-09-16 07:45:00,
2013-09-16 03:50:00,56.0,50.0,29.99,WSW,247,0.0,0.0,81,0.00,,,0.00,TxWx,2013-09-16 07:50:00,
2013-09-16 03:55:00,56.0,50.0,30.00,WSW,247,0.0,0.0,81,0.00,,,0.00,TxWx,2013-09-16 07:55:00,
2013-09-16 04:00:00,59.0,52.0,30.02,West,270,0.0,0.0,79,0.00,,,0.01,TxWx,2013-09-16 08:00:00,
2013-09-16 04:01:00,55.0,49.0,30.00,WSW,247,0.0,0.0,82,0.00,,,0.00,TxWx,2013-09-16 08:01:00,
2013-09-16 04:03:00,59.0,52.0,30.01,West,270,0.0,0.0,79,0.00,,,0.01,TxWx,2013-09-16 08:03:00,
2013-09-16 04:05:00,59.0,52.0,30.01,West,270,0.0,0.0,79,0.00,,,0.01,TxWx,2013-09-16 08:05:00,
2013-09-16 04:06:00,55.0,50.0,30.00,WSW,247,0.0,0.0,83,0.00,,,0.00,TxWx,2013-09-16 08:06:00,
2013-09-16 04:07:00,59.0,52.0,30.01,West,270,0.0,0.0,79,0.00,,,0.01,TxWx,2013-09-16 08:07:00,
2013-09-16 04:08:00,59.0,52.0,30.02,West,270,0.0,0.0,79,0.00,,,0.01,TxWx,2013-09-16 08:08:00,
2013-09-16 04:09:00,59.0,52.0,30.01,West,270,0.0,0.0,79,0.00,,,0.01,TxWx,2013-09-16 08:09:00,
2013-09-16 04:11:00,55.0,50.0,30.00,WSW,247,0.0,0.0,85,0.00,,,0.00,TxWx,2013-09-16 08:11:00,
2013-09-16 04:12:00,58.0,52.0,30.02,WSW,247,0.0,0.0,80,0.00,,,0.01,TxWx,2013-09-16 08:12:00,
2013-09-16 04:13:00,58.0,52.0,30.02,WSW,247,0.0,0.0,80,0.00,,,0.01,TxWx,2013-09-16 08:13:00,
2013-09-16 04:15:00,58.0,52.0,30.02,West,270,0.0,0.0,81,0.00,,,0.01,TxWx,2013-09-16 08:15:00,
2013-09-16 04:16:00,55.0,51.0,30.00,WSW,247,0.0,0.0,86,0.00,,,0.00,TxWx,2013-09-16 08:16:00,
2013-09-16 04:18:00,58.0,52.0,30.02,West,270,0.0,0.0,81,0.00,,,0.01,TxWx,2013-09-16 08:18:00,
2013-09-16 04:19:00,58.0,52.0,30.02,West,270,0.0,0.0,81,0.00,,,0.01,TxWx,2013-09-16 08:19:00,
2013-09-16 04:20:00,58.0,52.0,30.02,West,270,0.0,0.0,82,0.00,,,0.01,TxWx,2013-09-16 08:20:00,
2013-09-16 04:21:00,55.0,51.0,30.00,WSW,247,0.0,0.0,87,0.00,,,0.00,TxWx,2013-09-16 08:21:00,
2013-09-16 04:24:00,57.0,52.0,30.02,West,270,0.0,0.0,83,0.00,,,0.01,TxWx,2013-09-16 08:24:00,
2013-09-16 04:25:00,58.0,53.0,30.02,WSW,247,0.0,0.0,83,0.00,,,0.01,TxWx,2013-09-16 08:25:00,
2013-09-16 04:26:00,54.0,51.0,30.00,WSW,247,0.0,0.0,88,0.00,,,0.00,TxWx,2013-09-16 08:26:00,
2013-09-16 04:31:00,54.0,51.0,30.00,WSW,247,0.0,0.0,89,0.00,,,0.00,TxWx,2013-09-16 08:31:00,
2013-09-16 04:36:00,54.0,51.0,30.00,WSW,247,0.0,0.0,89,0.00,,,0.00,TxWx,2013-09-16 08:36:00,
2013-09-16 04:41:00,54.0,51.0,30.00,West,270,0.0,0.0,89,0.00,,,0.00,TxWx,2013-09-16 08:41:00,
2013-09-16 04:46:00,54.0,51.0,30.01,WSW,247,0.0,0.0,89,0.00,,,0.00,TxWx,2013-09-16 08:46:00,
2013-09-16 04:51:00,54.0,51.0,30.00,WSW,247,0.0,0.0,89,0.00,,,0.00,TxWx,2013-09-16 08:51:00,
2013-09-16 04:52:00,54.0,52.0,30.03,West,270,0.0,0.0,92,0.00,,,0.01,TxWx,2013-09-16 08:52:00,
2013-09-16 04:53:00,54.0,52.0,30.03,West,270,0.0,0.0,92,0.00,,,0.01,TxWx,2013-09-16 08:53:00,
2013-09-16 04:54:00,54.0,52.0,30.03,WSW,247,0.0,0.0,92,0.00,,,0.01,TxWx,2013-09-16 08:54:00,
2013-09-16 04:56:00,54.0,51.0,30.01,WSW,247,0.0,0.0,90,0.00,,,0.00,TxWx,2013-09-16 08:56:00,
2013-09-16 04:59:00,53.0,51.0,30.03,West,270,0.0,0.0,92,0.00,,,0.01,TxWx,2013-09-16 08:59:00,
2013-09-16 05:01:00,54.0,51.0,30.01,WSW,247,0.0,0.0,91,0.00,,,0.00,TxWx,2013-09-16 09:01:00,
2013-09-16 05:04:00,53.0,51.0,30.03,West,270,0.0,0.0,93,0.00,,,0.01,TxWx,2013-09-16 09:04:00,
2013-09-16 05:06:00,54.0,51.0,30.00,WSW,247,0.0,0.0,91,0.00,,,0.00,TxWx,2013-09-16 09:06:00,
2013-09-16 05:07:00,53.0,51.0,30.03,West,270,0.0,0.0,94,0.00,,,0.01,TxWx,2013-09-16 09:07:00,
2013-09-16 05:10:00,53.0,51.0,30.03,West,270,0.0,0.0,94,0.00,,,0.01,TxWx,2013-09-16 09:10:00,
2013-09-16 05:11:00,54.0,52.0,30.00,WSW,247,0.0,0.0,92,0.00,,,0.00,TxWx,2013-09-16 09:11:00,
2013-09-16 05:12:00,53.0,51.0,30.03,West,270,0.0,0.0,94,0.00,,,0.01,TxWx,2013-09-16 09:12:00,
2013-09-16 05:13:00,53.0,51.0,30.03,West,270,0.0,0.0,94,0.00,,,0.01,TxWx,2013-09-16 09:13:00,
2013-09-16 05:14:00,53.0,51.0,30.03,West,270,0.0,0.0,94,0.00,,,0.01,TxWx,2013-09-16 09:14:00,
2013-09-16 05:15:00,53.0,51.0,30.03,West,270,0.0,0.0,94,0.00,,,0.01,TxWx,2013-09-16 09:15:00,
2013-09-16 05:17:00,54.0,52.0,30.00,WSW,247,0.0,0.0,92,0.00,,,0.00,TxWx,2013-09-16 09:17:00,
2013-09-16 05:18:00,53.0,51.0,30.04,West,270,0.0,0.0,94,0.00,,,0.01,TxWx,2013-09-16 09:18:00,
2013-09-16 05:20:00,53.0,51.0,30.03,West,270,0.0,0.0,94,0.00,,,0.01,TxWx,2013-09-16 09:20:00,
2013-09-16 05:22:00,54.0,52.0,30.00,West,270,0.0,0.0,93,0.00,,,0.00,TxWx,2013-09-16 09:22:00,
2013-09-16 05:27:00,54.0,52.0,29.99,WSW,247,0.0,0.0,93,0.00,,,0.01,TxWx,2013-09-16 09:27:00,
2013-09-16 05:32:00,54.0,52.0,29.99,WSW,247,0.0,0.0,94,0.60,,,0.01,TxWx,2013-09-16 09:32:00,
2013-09-16 05:37:00,54.0,52.0,29.99,WSW,247,0.0,0.0,94,0.60,,,0.01,TxWx,2013-09-16 09:37:00,
2013-09-16 05:42:00,54.0,52.0,29.99,WSW,247,0.0,0.0,95,0.00,,,0.01,TxWx,2013-09-16 09:42:00,
2013-09-16 05:47:00,54.0,53.0,29.99,WSW,247,0.0,0.0,95,0.00,,,0.01,TxWx,2013-09-16 09:47:00,
2013-09-16 05:52:00,54.0,52.0,30.00,WSW,247,0.0,0.0,95,0.00,,,0.01,TxWx,2013-09-16 09:52:00,
2013-09-16 05:57:00,54.0,52.0,30.00,WSW,247,0.0,0.0,95,0.00,,,0.01,TxWx,2013-09-16 09:57:00,
2013-09-16 06:02:00,54.0,52.0,30.00,WSW,247,0.0,0.0,95,0.00,,,0.01,TxWx,2013-09-16 10:02:00,
2013-09-16 06:07:00,54.0,53.0,30.00,WSW,247,0.0,0.0,95,0.00,,,0.01,TxWx,2013-09-16 10:07:00,
2013-09-16 06:12:00,54.0,53.0,30.00,WSW,247,0.0,0.0,95,0.00,,,0.01,TxWx,2013-09-16 10:12:00,
2013-09-16 06:17:00,54.0,53.0,30.00,West,270,0.0,0.0,96,0.00,,,0.01,TxWx,2013-09-16 10:17:00,
2013-09-16 06:22:00,54.0,53.0,30.00,WSW,247,0.0,0.0,96,0.00,,,0.01,TxWx,2013-09-16 10:22:00,
2013-09-16 06:28:00,53.0,52.0,30.00,WSW,247,0.0,0.0,96,0.00,,,0.01,TxWx,2013-09-16 10:28:00,
2013-09-16 06:33:00,53.0,52.0,30.00,West,270,0.0,0.0,96,0.00,,,0.01,TxWx,2013-09-16 10:33:00,
2013-09-16 06:38:00,53.0,52.0,30.01,WSW,247,0.0,0.0,97,0.00,,,0.01,TxWx,2013-09-16 10:38:00,
2013-09-16 06:43:00,53.0,52.0,30.01,WSW,247,0.0,0.0,97,0.00,,,0.01,TxWx,2013-09-16 10:43:00,
2013-09-16 06:48:00,53.0,52.0,30.01,West,270,0.0,0.0,97,0.00,,,0.01,TxWx,2013-09-16 10:48:00,
2013-09-16 06:53:00,53.0,52.0,30.01,West,270,0.0,0.0,98,0.00,,,0.01,TxWx,2013-09-16 10:53:00,
2013-09-16 06:58:00,53.0,52.0,30.01,WSW,247,0.0,0.0,98,0.00,,,0.01,TxWx,2013-09-16 10:58:00,
2013-09-16 07:03:00,53.0,52.0,30.01,West,270,0.0,0.0,98,0.00,,,0.01,TxWx,2013-09-16 11:03:00,
2013-09-16 07:08:00,53.0,52.0,30.01,West,270,0.0,0.0,98,0.00,,,0.01,TxWx,2013-09-16 11:08:00,
2013-09-16 07:13:00,53.0,53.0,30.01,West,270,0.0,0.0,99,0.00,,,0.01,TxWx,2013-09-16 11:13:00,
2013-09-16 07:18:00,53.0,53.0,30.01,West,270,0.0,0.0,99,0.00,,,0.01,TxWx,2013-09-16 11:18:00,
2013-09-16 07:23:00,53.0,53.0,30.01,West,270,0.0,0.0,99,0.00,,,0.01,TxWx,2013-09-16 11:23:00,
2013-09-16 07:28:00,53.0,53.0,30.01,West,270,0.0,0.0,99,0.00,,,0.01,TxWx,2013-09-16 11:28:00,
2013-09-16 07:33:00,53.0,53.0,30.01,West,270,0.0,0.0,99,0.00,,,0.01,TxWx,2013-09-16 11:33:00,
2013-09-16 07:39:00,53.0,53.0,30.01,West,270,0.0,0.0,100,0.00,,,0.01,TxWx,2013-09-16 11:39:00,
2013-09-16 07:44:00,53.0,53.0,30.01,West,270,0.0,0.0,100,0.00,,,0.01,TxWx,2013-09-16 11:44:00,
2013-09-16 07:49:00,53.0,53.0,30.01,WSW,247,0.0,0.0,100,0.00,,,0.01,TxWx,2013-09-16 11:49:00,
2013-09-16 07:54:00,53.0,53.0,30.02,West,270,0.0,0.0,100,0.00,,,0.01,TxWx,2013-09-16 11:54:00,
2013-09-16 07:59:00,53.0,53.0,30.01,West,270,0.0,0.0,100,0.00,,,0.01,TxWx,2013-09-16 11:59:00,
2013-09-16 08:04:00,53.0,53.0,30.02,West,270,0.0,0.0,100,0.00,,,0.01,TxWx,2013-09-16 12:04:00,
2013-09-16 08:09:00,54.0,54.0,30.02,WSW,247,0.0,0.0,100,0.00,,,0.01,TxWx,2013-09-16 12:09:00,
2013-09-16 08:14:00,54.0,54.0,30.01,West,270,0.0,0.0,100,0.00,,,0.01,TxWx,2013-09-16 12:14:00,
2013-09-16 08:19:00,54.0,54.0,30.02,West,270,0.0,0.0,100,0.00,,,0.01,TxWx,2013-09-16 12:19:00,
2013-09-16 08:24:00,54.0,54.0,30.01,West,270,0.0,0.0,100,0.00,,,0.01,TxWx,2013-09-16 12:24:00,
2013-09-16 08:29:00,54.0,54.0,30.01,West,270,0.0,0.0,100,0.00,,,0.01,TxWx,2013-09-16 12:29:00,
2013-09-16 08:34:00,54.0,54.0,30.02,West,270,0.0,0.0,100,0.00,,,0.01,TxWx,2013-09-16 12:34:00,
2013-09-16 08:40:00,54.0,54.0,30.02,West,270,0.0,0.0,100,0.00,,,0.01,TxWx,2013-09-16 12:40:00,
2013-09-16 08:45:00,54.0,54.0,30.02,West,270,0.0,0.0,100,0.00,,,0.01,TxWx,2013-09-16 12:45:00,
2013-09-16 08:50:00,54.0,54.0,30.02,WSW,247,0.0,0.0,100,0.00,,,0.01,TxWx,2013-09-16 12:50:00,
2013-09-16 08:55:00,54.0,54.0,30.02,West,270,0.0,0.0,100,0.00,,,0.01,TxWx,2013-09-16 12:55:00,
2013-09-16 09:00:00,54.0,54.0,30.02,West,270,0.0,0.0,100,0.00,,,0.01,TxWx,2013-09-16 13:00:00,
2013-09-16 09:05:00,54.0,54.0,30.03,WSW,247,0.0,0.0,100,0.00,,,0.01,TxWx,2013-09-16 13:05:00,
2013-09-16 09:10:00,54.0,54.0,30.02,West,270,0.0,0.0,100,0.00,,,0.01,TxWx,2013-09-16 13:10:00,
2013-09-16 09:15:00,54.0,54.0,30.03,West,270,0.0,0.0,100,0.00,,,0.01,TxWx,2013-09-16 13:15:00,
2013-09-16 09:20:00,54.0,54.0,30.03,West,270,0.0,0.0,100,0.00,,,0.01,TxWx,2013-09-16 13:20:00,
2013-09-16 09:25:00,55.0,55.0,30.03,West,270,0.0,0.0,100,0.00,,,0.01,TxWx,2013-09-16 13:25:00,
2013-09-16 09:30:00,55.0,55.0,30.03,West,270,0.0,0.0,100,0.00,,,0.01,TxWx,2013-09-16 13:30:00,
2013-09-16 09:35:00,55.0,55.0,30.03,WSW,247,0.0,0.0,99,0.00,,,0.01,TxWx,2013-09-16 13:35:00,
2013-09-16 09:40:00,55.0,55.0,30.03,West,270,0.0,0.0,99,0.00,,,0.01,TxWx,2013-09-16 13:40:00,
2013-09-16 09:45:00,54.0,54.0,30.03,WSW,247,0.0,0.0,99,0.00,,,0.01,TxWx,2013-09-16 13:45:00,
2013-09-16 09:50:00,54.0,53.0,30.02,West,270,0.0,0.0,98,0.00,,,0.01,TxWx,2013-09-16 13:50:00,
2013-09-16 09:56:00,54.0,54.0,30.02,West,270,0.0,0.0,99,0.00,,,0.01,TxWx,2013-09-16 13:56:00,
2013-09-16 10:01:00,55.0,55.0,30.02,West,270,0.0,0.0,99,0.00,,,0.01,TxWx,2013-09-16 14:01:00,
2013-09-16 10:06:00,55.0,54.0,30.02,West,270,0.0,0.0,98,0.00,,,0.01,TxWx,2013-09-16 14:06:00,
2013-09-16 10:11:00,55.0,54.0,30.03,West,270,0.0,0.0,97,0.00,,,0.01,TxWx,2013-09-16 14:11:00,
2013-09-16 10:16:00,56.0,55.0,30.03,West,270,0.0,0.0,97,0.00,,,0.01,TxWx,2013-09-16 14:16:00,
2013-09-16 10:21:00,56.0,55.0,30.03,West,270,0.0,0.0,96,0.00,,,0.01,TxWx,2013-09-16 14:21:00,
2013-09-16 10:26:00,56.0,54.0,30.03,WSW,247,0.0,0.0,94,0.00,,,0.01,TxWx,2013-09-16 14:26:00,
2013-09-16 10:31:00,56.0,54.0,30.03,West,270,0.0,0.0,94,0.00,,,0.01,TxWx,2013-09-16 14:31:00,
2013-09-16 10:36:00,57.0,55.0,30.03,West,270,0.0,0.0,92,0.00,,,0.01,TxWx,2013-09-16 14:36:00,
2013-09-16 10:41:00,57.0,54.0,30.03,West,270,0.0,0.0,91,0.00,,,0.01,TxWx,2013-09-16 14:41:00,
2013-09-16 10:46:00,57.0,54.0,30.03,WSW,247,0.0,0.0,89,0.00,,,0.01,TxWx,2013-09-16 14:46:00,
2013-09-16 10:51:00,56.0,53.0,30.03,West,270,0.0,0.0,90,0.00,,,0.01,TxWx,2013-09-16 14:51:00,
2013-09-16 10:56:00,57.0,54.0,30.03,West,270,0.0,0.0,90,0.00,,,0.01,TxWx,2013-09-16 14:56:00,
2013-09-16 11:01:00,57.0,54.0,30.03,West,270,0.0,0.0,90,0.00,,,0.01,TxWx,2013-09-16 15:01:00,
2013-09-16 11:07:00,57.0,54.0,30.03,WSW,247,0.0,0.0,90,0.00,,,0.01,TxWx,2013-09-16 15:07:00,
2013-09-16 11:12:00,57.0,54.0,30.03,West,270,0.0,0.0,90,0.00,,,0.01,TxWx,2013-09-16 15:12:00,
2013-09-16 11:17:00,57.0,54.0,30.03,West,270,0.0,0.0,90,0.00,,,0.01,TxWx,2013-09-16 15:17:00,
2013-09-16 11:22:00,57.0,53.0,30.02,West,270,0.0,0.0,87,0.00,,,0.01,TxWx,2013-09-16 15:22:00,
2013-09-16 11:27:00,58.0,54.0,30.03,WSW,247,0.0,0.0,88,0.00,,,0.01,TxWx,2013-09-16 15:27:00,
2013-09-16 11:32:00,58.0,54.0,30.03,West,270,0.0,0.0,86,0.00,,,0.01,TxWx,2013-09-16 15:32:00,
2013-09-16 11:37:00,58.0,54.0,30.03,West,270,0.0,0.0,86,0.00,,,0.01,TxWx,2013-09-16 15:37:00,
2013-09-16 11:42:00,58.0,54.0,30.03,West,270,0.0,0.0,87,0.00,,,0.01,TxWx,2013-09-16 15:42:00,
2013-09-16 11:47:00,59.0,55.0,30.03,West,270,0.0,0.0,87,0.00,,,0.01,TxWx,2013-09-16 15:47:00,
2013-09-16 11:52:00,58.0,53.0,30.03,West,270,0.0,0.0,84,0.00,,,0.01,TxWx,2013-09-16 15:52:00,
2013-09-16 11:57:00,58.0,53.0,30.02,West,270,0.0,0.0,85,0.00,,,0.01,TxWx,2013-09-16 15:57:00,
2013-09-16 12:02:00,58.0,54.0,30.03,West,270,0.0,0.0,86,0.00,,,0.01,TxWx,2013-09-16 16:02:00,
2013-09-16 12:07:00,57.0,53.0,30.02,West,270,0.0,0.0,86,0.00,,,0.01,TxWx,2013-09-16 16:07:00,
2013-09-16 12:12:00,57.0,53.0,30.02,West,270,0.0,0.0,87,0.00,,,0.01,TxWx,2013-09-16 16:12:00,
2013-09-16 12:18:00,58.0,54.0,30.02,West,270,0.0,0.0,87,0.00,,,0.01,TxWx,2013-09-16 16:18:00,
2013-09-16 12:23:00,58.0,54.0,30.02,WSW,247,0.0,0.0,87,0.00,,,0.01,TxWx,2013-09-16 16:23:00,
2013-09-16 12:28:00,58.0,54.0,30.02,West,270,0.0,0.0,86,0.00,,,0.01,TxWx,2013-09-16 16:28:00,
2013-09-16 12:33:00,58.0,53.0,30.02,West,270,0.0,0.0,84,0.00,,,0.01,TxWx,2013-09-16 16:33:00,
2013-09-16 12:38:00,59.0,54.0,30.01,West,270,0.0,0.0,84,0.00,,,0.01,TxWx,2013-09-16 16:38:00,
2013-09-16 12:43:00,59.0,53.0,30.02,West,270,0.0,0.0,82,0.00,,,0.01,TxWx,2013-09-16 16:43:00,
2013-09-16 12:48:00,59.0,53.0,30.02,West,270,0.0,0.0,80,0.00,,,0.01,TxWx,2013-09-16 16:48:00,
2013-09-16 12:53:00,59.0,53.0,30.02,WSW,247,0.0,0.0,81,0.00,,,0.01,TxWx,2013-09-16 16:53:00,
2013-09-16 12:58:00,59.0,52.0,30.01,WSW,247,0.0,0.0,79,0.00,,,0.01,TxWx,2013-09-16 16:58:00,
2013-09-16 13:03:00,59.0,52.0,30.01,West,270,0.0,0.0,79,0.00,,,0.01,TxWx,2013-09-16 17:03:00,
2013-09-16 13:08:00,59.0,52.0,30.01,West,270,0.0,0.0,79,0.00,,,0.01,TxWx,2013-09-16 17:08:00,
2013-09-16 13:14:00,58.0,52.0,30.02,West,270,0.0,0.0,80,0.00,,,0.01,TxWx,2013-09-16 17:14:00,
2013-09-16 13:19:00,58.0,52.0,30.02,West,270,0.0,0.0,81,0.00,,,0.01,TxWx,2013-09-16 17:19:00,
2013-09-16 13:24:00,58.0,53.0,30.02,West,270,0.0,0.0,83,0.00,,,0.01,TxWx,2013-09-16 17:24:00,
2013-09-16 13:29:00,57.0,52.0,30.02,West,270,0.0,0.0,85,0.00,,,0.01,TxWx,2013-09-16 17:29:00,
2013-09-16 13:34:00,56.0,52.0,30.02,West,270,0.0,0.0,87,0.00,,,0.01,TxWx,2013-09-16 17:34:00,
2013-09-16 13:39:00,56.0,53.0,30.02,WSW,247,0.0,0.0,89,0.00,,,0.01,TxWx,2013-09-16 17:39:00,
2013-09-16 13:44:00,55.0,52.0,30.02,West,270,0.0,0.0,91,0.00,,,0.01,TxWx,2013-09-16 17:44:00,
2013-09-16 13:49:00,55.0,53.0,30.03,West,270,0.0,0.0,92,0.00,,,0.01,TxWx,2013-09-16 17:49:00,
2013-09-16 13:54:00,54.0,52.0,30.03,West,270,0.0,0.0,92,0.00,,,0.01,TxWx,2013-09-16 17:54:00,
2013-09-16 13:59:00,53.0,51.0,30.03,West,270,0.0,0.0,92,0.00,,,0.01,TxWx,2013-09-16 17:59:00,
2013-09-16 14:04:00,53.0,51.0,30.03,WSW,247,0.0,0.0,93,0.00,,,0.01,TxWx,2013-09-16 18:04:00,
2013-09-16 14:10:00,53.0,51.0,30.03,West,270,0.0,0.0,94,0.00,,,0.01,TxWx,2013-09-16 18:10:00,
2013-09-16 14:15:00,53.0,51.0,30.03,West,270,0.0,0.0,94,0.00,,,0.01,TxWx,2013-09-16 18:15:00,
2013-09-16 14:20:00,53.0,51.0,30.03,West,270,0.0,0.0,94,0.00,,,0.01,TxWx,2013-09-16 18:20:00,
2013-09-16 14:25:00,53.0,51.0,30.03,West,270,0.0,0.0,94,0.00,,,0.01,TxWx,2013-09-16 18:25:00,
2013-09-16 14:30:00,54.0,52.0,30.04,West,270,0.0,0.0,94,0.00,,,0.01,TxWx,2013-09-16 18:30:00,
2013-09-16 14:35:00,55.0,53.0,30.04,West,270,0.0,0.0,93,0.00,,,0.01,TxWx,2013-09-16 18:35:00,
2013-09-16 14:40:00,53.0,51.0,30.04,West,270,0.0,0.0,92,0.00,,,0.01,TxWx,2013-09-16 18:40:00,
2013-09-16 14:45:00,53.0,51.0,30.04,West,270,0.0,0.0,93,0.00,,,0.01,TxWx,2013-09-16 18:45:00,
2013-09-16 14:50:00,53.0,51.0,30.04,West,270,0.0,0.0,93,0.00,,,0.01,TxWx,2013-09-16 18:50:00,
2013-09-16 14:55:00,54.0,52.0,30.03,West,270,0.0,0.0,93,0.00,,,0.01,TxWx,2013-09-16 18:55:00,
2013-09-16 15:00:00,54.0,52.0,30.04,West,270,0.0,0.0,92,0.00,,,0.01,TxWx,2013-09-16 19:00:00,
2013-09-16 15:01:00,43.0,37.0,30.24,West,270,0.0,0.0,81,0.00,,,0.00,TxWx,2013-09-16 19:01:00,
2013-09-16 15:02:00,43.0,37.0,30.24,West,270,0.0,0.0,81,0.00,,,0.00,TxWx,2013-09-16 19:02:00,
2013-09-16 15:03:00,43.0,38.0,30.24,WSW,247,0.0,0.0,81,0.00,,,0.00,TxWx,2013-09-16 19:03:00,
2013-09-16 15:04:00,43.0,38.0,30.24,West,270,0.0,0.0,81,0.00,,,0.00,TxWx,2013-09-16 19:04:00,
2013-09-16 15:05:00,54.0,52.0,30.04,West,270,0.0,0.0,92,0.00,,,0.01,TxWx,2013-09-16 19:05:00,
2013-09-16 15:06:00,43.0,38.0,30.24,West,270,0.0,0.0,81,0.00,,,0.00,TxWx,2013-09-16 19:06:00,
2013-09-16 15:07:00,43.0,38.0,30.24,West,270,0.0,0.0,81,0.00,,,0.00,TxWx,2013-09-16 19:07:00,
2013-09-16 15:08:00,43.0,38.0,30.24,WSW,247,0.0,0.0,81,0.00,,,0.00,TxWx,2013-09-16 19:08:00,
2013-09-16 15:09:00,43.0,38.0,30.24,WSW,247,0.0,0.0,81,0.00,,,0.00,TxWx,2013-09-16 19:09:00,
2013-09-16 15:10:00,43.0,38.0,30.24,West,270,0.0,0.0,81,0.00,,,0.00,TxWx,2013-09-16 19:10:00,
2013-09-16 15:11:00,54.0,52.0,30.04,West,270,0.0,0.0,92,0.00,,,0.01,TxWx,2013-09-16 19:11:00,
2013-09-16 15:12:00,43.0,38.0,30.24,West,270,0.0,0.0,81,0.00,,,0.00,TxWx,2013-09-16 19:12:00,
2013-09-16 15:13:00,43.0,38.0,30.24,West,270,0.0,0.0,81,0.00,,,0.00,TxWx,2013-09-16 19:13:00,
2013-09-16 15:14:00,43.0,38.0,30.24,West,270,0.0,0.0,81,0.00,,,0.00,TxWx,2013-09-16 19:14:00,
2013-09-16 15:15:00,43.0,38.0,30.24,WSW,247,0.0,0.0,81,0.00,,,0.00,TxWx,2013-09-16 19:15:00,
2013-09-16 15:16:00,53.0,51.0,30.04,West,270,0.0,0.0,92,0.00,,,0.01,TxWx,2013-09-16 19:16:00,
2013-09-16 15:17:00,43.0,38.0,30.24,WSW,247,0.0,0.0,81,0.00,,,0.00,TxWx,2013-09-16 19:17:00,
2013-09-16 15:18:00,43.0,38.0,30.24,West,270,0.0,0.0,81,0.00,,,0.00,TxWx,2013-09-16 19:18:00,
2013-09-16 15:19:00,43.0,38.0,30.24,West,270,0.0,0.0,81,0.00,,,0.00,TxWx,2013-09-16 19:19:00,
2013-09-16 15:20:00,43.0,37.0,30.24,West,270,0.0,0.0,81,0.00,,,0.00,TxWx,2013-09-16 19:20:00,
2013-09-16 15:21:00,53.0,51.0,30.04,WSW,247,0.0,0.0,92,0.00,,,0.01,TxWx,2013-09-16 19:21:00,
2013-09-16 15:22:00,43.0,37.0,30.24,West,270,0.0,0.0,80,0.00,,,0.00,TxWx,2013-09-16 19:22:00,
2013-09-16 15:23:00,43.0,37.0,30.24,West,270,0.0,0.0,80,0.00,,,0.00,TxWx,2013-09-16 19:23:00,
2013-09-16 15:24:00,43.0,37.0,30.24,West,270,0.0,0.0,80,0.00,,,0.00,TxWx,2013-09-16 19:24:00,
2013-09-16 15:25:00,43.0,37.0,30.25,West,270,0.0,0.0,80,0.00,,,0.00,TxWx,2013-09-16 19:25:00,
2013-09-16 15:26:00,53.0,51.0,30.04,WSW,247,0.0,0.0,92,0.00,,,0.01,TxWx,2013-09-16 19:26:00,
2013-09-16 15:27:00,43.0,37.0,30.24,WSW,247,0.0,0.0,80,0.00,,,0.00,TxWx,2013-09-16 19:27:00,
2013-09-16 15:28:00,43.0,37.0,30.25,West,270,0.0,0.0,79,0.00,,,0.00,TxWx,2013-09-16 19:28:00,
2013-09-16 15:29:00,43.0,37.0,30.25,West,270,0.0,0.0,79,0.00,,,0.00,TxWx,2013-09-16 19:29:00,
2013-09-16 15:31:00,53.0,51.0,30.04,West,270,0.0,0.0,93,0.00,,,0.01,TxWx,2013-09-16 19:31:00,
2013-09-16 15:33:00,43.0,37.0,30.25,West,270,0.0,0.0,79,0.00,,,0.00,TxWx,2013-09-16 19:33:00,
2013-09-16 15:36:00,53.0,51.0,30.04,West,270,0.0,0.0,93,0.00,,,0.01,TxWx,2013-09-16 19:36:00,
2013-09-16 15:37:00,43.0,37.0,30.25,WSW,247,0.0,0.0,79,0.00,,,0.00,TxWx,2013-09-16 19:37:00,
2013-09-16 15:41:00,52.0,51.0,30.04,West,270,0.0,0.0,94,0.00,,,0.02,TxWx,2013-09-16 19:41:00,
2013-09-16 15:46:00,52.0,50.0,30.05,West,270,0.0,0.0,94,0.00,,,0.02,TxWx,2013-09-16 19:46:00,
2013-09-16 15:51:00,52.0,51.0,30.05,West,270,0.0,0.0,95,0.60,,,0.02,TxWx,2013-09-16 19:51:00,
2013-09-16 15:56:00,52.0,51.0,30.05,West,270,0.0,0.0,95,0.60,,,0.02,TxWx,2013-09-16 19:56:00,
2013-09-16 16:01:00,52.0,51.0,30.05,West,270,0.0,0.0,95,0.00,,,0.02,TxWx,2013-09-16 20:01:00,
2013-09-16 16:07:00,52.0,51.0,30.04,WSW,247,0.0,0.0,96,0.00,,,0.02,TxWx,2013-09-16 20:07:00,
2013-09-16 16:12:00,52.0,51.0,30.04,West,270,0.0,0.0,96,0.00,,,0.02,TxWx,2013-09-16 20:12:00,
2013-09-16 16:17:00,51.0,50.0,30.04,West,270,0.0,0.0,96,0.00,,,0.02,TxWx,2013-09-16 20:17:00,
2013-09-16 16:22:00,51.0,50.0,30.05,West,270,0.0,0.0,96,0.60,,,0.03,TxWx,2013-09-16 20:22:00,
2013-09-16 16:27:00,51.0,50.0,30.05,WSW,247,0.0,0.0,95,0.60,,,0.03,TxWx,2013-09-16 20:27:00,
2013-09-16 16:32:00,51.0,50.0,30.05,West,270,0.0,0.0,95,0.00,,,0.03,TxWx,2013-09-16 20:32:00,
2013-09-16 16:37:00,51.0,49.0,30.05,West,270,0.0,0.0,95,0.00,,,0.03,TxWx,2013-09-16 20:37:00,
2013-09-16 16:42:00,51.0,49.0,30.05,West,270,0.0,0.0,95,0.00,,,0.03,TxWx,2013-09-16 20:42:00,
2013-09-16 16:47:00,51.0,49.0,30.05,West,270,0.0,0.0,95,0.00,,,0.03,TxWx,2013-09-16 20:47:00,
2013-09-16 16:53:00,51.0,49.0,30.05,WSW,247,0.0,0.0,94,0.00,,,0.03,TxWx,2013-09-16 20:53:00,
2013-09-16 16:58:00,51.0,49.0,30.06,West,270,0.0,0.0,94,0.00,,,0.03,TxWx,2013-09-16 20:58:00,
2013-09-16 17:03:00,51.0,49.0,30.06,WSW,247,0.0,0.0,94,0.00,,,0.03,TxWx,2013-09-16 21:03:00,
2013-09-16 17:08:00,51.0,49.0,30.06,West,270,0.0,0.0,94,0.00,,,0.03,TxWx,2013-09-16 21:08:00,
2013-09-16 17:10:00,41.0,38.0,30.27,West,270,0.0,0.0,88,0.00,,,0.00,TxWx,2013-09-16 21:10:00,
2013-09-16 17:11:00,41.0,38.0,30.27,West,270,0.0,0.0,88,0.00,,,0.00,TxWx,2013-09-16 21:11:00,
2013-09-16 17:13:00,51.0,49.0,30.06,West,270,0.0,0.0,95,0.00,,,0.03,TxWx,2013-09-16 21:13:00,
2013-09-16 17:14:00,41.0,38.0,30.27,WSW,247,0.0,0.0,88,0.00,,,0.00,TxWx,2013-09-16 21:14:00,
2013-09-16 17:15:00,41.0,38.0,30.27,WSW,247,0.0,0.0,88,0.00,,,0.00,TxWx,2013-09-16 21:15:00,
2013-09-16 17:17:00,41.0,38.0,30.27,West,270,0.0,0.0,88,0.00,,,0.00,TxWx,2013-09-16 21:17:00,
2013-09-16 17:18:00,51.0,49.0,30.06,West,270,0.0,0.0,95,0.00,,,0.03,TxWx,2013-09-16 21:18:00,
2013-09-16 17:19:00,41.0,38.0,30.27,WSW,247,0.0,0.0,88,0.00,,,0.00,TxWx,2013-09-16 21:19:00,
2013-09-16 17:21:00,41.0,38.0,30.27,WSW,247,0.0,0.0,88,0.00,,,0.00,TxWx,2013-09-16 21:21:00,
2013-09-16 17:22:00,41.0,38.0,30.27,WSW,247,0.0,0.0,89,0.00,,,0.00,TxWx,2013-09-16 21:22:00,
2013-09-16 17:23:00,51.0,49.0,30.06,West,270,0.0,0.0,94,0.00,,,0.03,TxWx,2013-09-16 21:23:00,
2013-09-16 17:25:00,41.0,38.0,30.27,WSW,247,0.0,0.0,89,0.00,,,0.00,TxWx,2013-09-16 21:25:00,
2013-09-16 17:26:00,41.0,38.0,30.27,West,270,0.0,0.0,89,0.00,,,0.00,TxWx,2013-09-16 21:26:00,
2013-09-16 17:27:00,41.0,38.0,30.27,WSW,247,0.0,0.0,89,0.00,,,0.00,TxWx,2013-09-16 21:27:00,
2013-09-16 17:28:00,51.0,49.0,30.07,West,270,0.0,0.0,94,0.00,,,0.03,TxWx,2013-09-16 21:28:00,
2013-09-16 17:33:00,51.0,49.0,30.07,West,270,0.0,0.0,94,0.00,,,0.03,TxWx,2013-09-16 21:33:00,
2013-09-16 17:38:00,51.0,49.0,30.08,West,270,0.0,0.0,94,0.00,,,0.03,TxWx,2013-09-16 21:38:00,
2013-09-16 17:44:00,50.0,48.0,30.07,West,270,0.0,0.0,94,0.00,,,0.03,TxWx,2013-09-16 21:44:00,
2013-09-16 17:49:00,50.0,48.0,30.08,West,270,0.0,0.0,93,0.00,,,0.03,TxWx,2013-09-16 21:49:00,
2013-09-16 17:54:00,50.0,48.0,30.08,West,270,0.0,0.0,93,0.00,,,0.03,TxWx,2013-09-16 21:54:00,
2013-09-16 17:59:00,51.0,49.0,30.08,WSW,247,0.0,0.0,92,0.00,,,0.03,TxWx,2013-09-16 21:59:00,
2013-09-16 18:04:00,51.0,48.0,30.08,West,270,0.0,0.0,91,0.00,,,0.03,TxWx,2013-09-16 22:04:00,
2013-09-16 18:09:00,51.0,48.0,30.09,West,270,0.0,0.0,90,0.00,,,0.03,TxWx,2013-09-16 22:09:00,
2013-09-16 18:14:00,51.0,48.0,30.09,West,270,0.0,0.0,90,0.00,,,0.03,TxWx,2013-09-16 22:14:00,
2013-09-16 18:19:00,51.0,48.0,30.09,West,270,0.0,0.0,90,0.00,,,0.03,TxWx,2013-09-16 22:19:00,
2013-09-16 18:24:00,51.0,48.0,30.09,West,270,0.0,0.0,89,0.00,,,0.03,TxWx,2013-09-16 22:24:00,
2013-09-16 18:29:00,51.0,48.0,30.09,West,270,0.0,0.0,89,0.00,,,0.03,TxWx,2013-09-16 22:29:00,
2013-09-16 18:35:00,50.0,47.0,30.10,West,270,0.0,0.0,89,0.00,,,0.03,TxWx,2013-09-16 22:35:00,
2013-09-16 18:40:00,50.0,47.0,30.10,West,270,0.0,0.0,90,0.00,,,0.03,TxWx,2013-09-16 22:40:00,
2013-09-16 18:45:00,50.0,47.0,30.10,West,270,0.0,0.0,89,0.00,,,0.03,TxWx,2013-09-16 22:45:00,
2013-09-16 18:50:00,49.0,46.0,30.11,West,270,0.0,0.0,89,0.00,,,0.03,TxWx,2013-09-16 22:50:00,
2013-09-16 18:55:00,49.0,46.0,30.11,West,270,0.0,0.0,88,0.00,,,0.03,TxWx,2013-09-16 22:55:00,
2013-09-16 19:00:00,48.0,46.0,30.11,West,270,0.0,0.0,88,0.00,,,0.03,TxWx,2013-09-16 23:00:00,
2013-09-16 19:05:00,48.0,44.0,30.11,West,270,0.0,0.0,88,0.00,,,0.03,TxWx,2013-09-16 23:05:00,
2013-09-16 19:10:00,48.0,44.0,30.11,West,270,0.0,0.0,88,0.00,,,0.03,TxWx,2013-09-16 23:10:00,
2013-09-16 19:15:00,48.0,44.0,30.12,West,270,0.0,0.0,88,0.00,,,0.03,TxWx,2013-09-16 23:15:00,
2013-09-16 19:20:00,48.0,44.0,30.12,West,270,0.0,0.0,89,0.00,,,0.03,TxWx,2013-09-16 23:20:00,
2013-09-16 19:25:00,47.0,44.0,30.12,West,270,0.0,0.0,89,0.00,,,0.03,TxWx,2013-09-16 23:25:00,
2013-09-16 19:30:00,47.0,44.0,30.12,West,270,0.0,0.0,89,0.00,,,0.03,TxWx,2013-09-16 23:30:00,
2013-09-16 19:35:00,47.0,44.0,30.12,West,270,0.0,0.0,88,0.00,,,0.03,TxWx,2013-09-16 23:35:00,
2013-09-16 19:41:00,47.0,43.0,30.13,West,270,0.0,0.0,87,0.00,,,0.03,TxWx,2013-09-16 23:41:00,
2013-09-16 19:46:00,47.0,43.0,30.13,West,270,0.0,0.0,87,0.00,,,0.03,TxWx,2013-09-16 23:46:00,
2013-09-16 19:51:00,47.0,43.0,30.14,WSW,247,0.0,0.0,86,0.00,,,0.03,TxWx,2013-09-16 23:51:00,
2013-09-16 19:56:00,47.0,43.0,30.14,WSW,247,0.0,0.0,85,0.00,,,0.03,TxWx,2013-09-16 23:56:00,
2013-09-16 20:01:00,47.0,43.0,30.14,West,270,0.0,0.0,85,0.00,,,0.03,TxWx,2013-09-17 00:01:00,
2013-09-16 20:06:00,46.0,42.0,30.15,West,270,0.0,0.0,86,0.00,,,0.03,TxWx,2013-09-17 00:06:00,
2013-09-16 20:11:00,46.0,42.0,30.15,West,270,0.0,0.0,86,0.00,,,0.03,TxWx,2013-09-17 00:11:00,
2013-09-16 20:16:00,46.0,42.0,30.15,WSW,247,0.0,0.0,86,0.00,,,0.03,TxWx,2013-09-17 00:16:00,
2013-09-16 20:21:00,46.0,42.0,30.15,WSW,247,0.0,0.0,86,0.00,,,0.03,TxWx,2013-09-17 00:21:00,
2013-09-16 20:26:00,46.0,42.0,30.15,West,270,0.0,0.0,86,0.00,,,0.03,TxWx,2013-09-17 00:26:00,
2013-09-16 20:31:00,46.0,42.0,30.15,West,270,0.0,0.0,86,0.00,,,0.03,TxWx,2013-09-17 00:31:00,
2013-09-16 20:37:00,46.0,42.0,30.15,WSW,247,0.0,0.0,86,0.00,,,0.03,TxWx,2013-09-17 00:37:00,
2013-09-16 20:42:00,46.0,42.0,30.16,West,270,0.0,0.0,86,0.00,,,0.03,TxWx,2013-09-17 00:42:00,
2013-09-16 20:47:00,45.0,41.0,30.16,West,270,0.0,0.0,85,0.00,,,0.03,TxWx,2013-09-17 00:47:00,
2013-09-16 20:52:00,45.0,40.0,30.16,WSW,247,0.0,0.0,84,0.00,,,0.03,TxWx,2013-09-17 00:52:00,
2013-09-16 20:57:00,45.0,40.0,30.16,West,270,0.0,0.0,84,0.00,,,0.03,TxWx,2013-09-17 00:57:00,
2013-09-16 21:02:00,45.0,40.0,30.16,West,270,0.0,0.0,84,0.00,,,0.03,TxWx,2013-09-17 01:02:00,
2013-09-16 21:07:00,45.0,40.0,30.17,West,270,0.0,0.0,84,0.00,,,0.03,TxWx,2013-09-17 01:07:00,
2013-09-16 21:12:00,45.0,40.0,30.17,West,270,0.0,0.0,83,0.00,,,0.03,TxWx,2013-09-17 01:12:00,
2013-09-16 21:17:00,45.0,40.0,30.17,West,270,0.0,0.0,82,0.00,,,0.03,TxWx,2013-09-17 01:17:00,
2013-09-16 21:22:00,45.0,40.0,30.17,West,270,0.0,0.0,82,0.00,,,0.03,TxWx,2013-09-17 01:22:00,
2013-09-16 21:27:00,45.0,40.0,30.17,WSW,247,0.0,0.0,82,0.00,,,0.03,TxWx,2013-09-17 01:27:00,
2013-09-16 21:32:00,45.0,40.0,30.17,West,270,0.0,0.0,82,0.00,,,0.03,TxWx,2013-09-17 01:32:00,
2013-09-16 21:38:00,44.0,39.0,30.18,West,270,0.0,0.0,82,0.00,,,0.03,TxWx,2013-09-17 01:38:00,
2013-09-16 21:43:00,44.0,39.0,30.18,WSW,247,0.0,0.0,83,0.00,,,0.03,TxWx,2013-09-17 01:43:00,
2013-09-16 21:48:00,44.0,39.0,30.18,West,270,0.0,0.0,82,0.00,,,0.03,TxWx,2013-09-17 01:48:00,
2013-09-16 21:53:00,44.0,39.0,30.18,West,270,0.0,0.0,82,0.00,,,0.03,TxWx,2013-09-17 01:53:00,
2013-09-16 21:58:00,44.0,39.0,30.19,West,270,0.0,0.0,82,0.00,,,0.03,TxWx,2013-09-17 01:58:00,
2013-09-16 22:03:00,44.0,39.0,30.19,WSW,247,0.0,0.0,82,0.00,,,0.03,TxWx,2013-09-17 02:03:00,
2013-09-16 22:08:00,44.0,39.0,30.19,West,270,0.0,0.0,82,0.00,,,0.03,TxWx,2013-09-17 02:08:00,
2013-09-16 22:13:00,44.0,39.0,30.19,West,270,0.0,0.0,83,0.00,,,0.03,TxWx,2013-09-17 02:13:00,
2013-09-16 22:18:00,44.0,39.0,30.20,West,270,0.0,0.0,83,0.00,,,0.03,TxWx,2013-09-17 02:18:00,
2013-09-16 22:24:00,44.0,39.0,30.20,West,270,0.0,0.0,83,0.00,,,0.03,TxWx,2013-09-17 02:24:00,
2013-09-16 22:29:00,43.0,38.0,30.20,WSW,247,0.0,0.0,83,0.00,,,0.03,TxWx,2013-09-17 02:29:00,
2013-09-16 22:34:00,44.0,39.0,30.21,West,270,0.0,0.0,82,0.00,,,0.03,TxWx,2013-09-17 02:34:00,
2013-09-16 22:39:00,44.0,39.0,30.21,West,270,0.0,0.0,81,0.00,,,0.03,TxWx,2013-09-17 02:39:00,
2013-09-16 22:44:00,43.0,38.0,30.21,WSW,247,0.0,0.0,82,0.00,,,0.03,TxWx,2013-09-17 02:44:00,
2013-09-16 22:49:00,43.0,38.0,30.21,WSW,247,0.0,0.0,82,0.00,,,0.03,TxWx,2013-09-17 02:49:00,
2013-09-16 22:54:00,43.0,38.0,30.21,West,270,0.0,0.0,82,0.00,,,0.03,TxWx,2013-09-17 02:54:00,
2013-09-16 22:59:00,43.0,38.0,30.21,West,270,0.0,0.0,82,0.00,,,0.03,TxWx,2013-09-17 02:59:00,
2013-09-16 23:05:00,43.0,38.0,30.22,West,270,0.0,0.0,83,0.00,,,0.03,TxWx,2013-09-17 03:05:00,
2013-09-16 23:10:00,43.0,38.0,30.22,West,270,0.0,0.0,83,0.00,,,0.03,TxWx,2013-09-17 03:10:00,
2013-09-16 23:15:00,43.0,38.0,30.22,West,270,0.0,0.0,83,0.00,,,0.03,TxWx,2013-09-17 03:15:00,
2013-09-16 23:20:00,43.0,38.0,30.22,West,270,0.0,0.0,83,0.00,,,0.03,TxWx,2013-09-17 03:20:00,
2013-09-16 23:25:00,43.0,38.0,30.22,WSW,247,0.0,0.0,84,0.00,,,0.03,TxWx,2013-09-17 03:25:00,
2013-09-16 23:30:00,43.0,38.0,30.22,West,270,0.0,0.0,84,0.00,,,0.03,TxWx,2013-09-17 03:30:00,
2013-09-16 23:35:00,43.0,38.0,30.23,WSW,247,0.0,0.0,83,0.00,,,0.03,TxWx,2013-09-17 03:35:00,
2013-09-16 23:40:00,43.0,38.0,30.23,West,270,0.0,0.0,82,0.00,,,0.03,TxWx,2013-09-17 03:40:00,
2013-09-16 23:45:00,43.0,38.0,30.24,WSW,247,0.0,0.0,81,0.00,,,0.03,TxWx,2013-09-17 03:45:00,
2013-09-16 23:50:00,43.0,38.0,30.24,WSW,247,0.0,0.0,81,0.00,,,0.03,TxWx,2013-09-17 03:50:00,
2013-09-16 23:55:00,43.0,37.0,30.24,West,270,0.0,0.0,81,0.00,,,0.03,TxWx,2013-09-17 03:55:00,